Time;durP1;ratioP1;P1;durP2;ratioP2;P2;SDS_P1;SDS_P2;PMS_P1;PMS_P2;Temp;Humidity;BMP_temperature;BMP_pressure;BME280_temperature;BME280_humidity;BME280_pressure;Samples;Min_cycle;Max_cycle;Signal;HPM_P1;HPM_P2
2022/03/04 00:04:53;;;;;;;72.63;32.27;;;;;;;1.30;95.53;101148.90;5040240;56;1138902;-72
2022/03/04 00:10:01;;;;;;;73.17;33.17;;;;;;;1.35;95.30;101150.93;5032800;56;1138822;-75
2022/03/04 00:15:08;;;;;;;71.87;32.70;;;;;;;1.33;94.99;101150.12;5032631;56;1138898;-74
2022/03/04 00:20:14;;;;;;;76.20;32.73;;;;;;;1.26;94.75;101145.52;5032612;56;1139195;-70
2022/03/04 00:25:21;;;;;;;80.97;34.20;;;;;;;1.17;94.71;101139.28;5032323;56;1153782;-75
2022/03/04 00:30:27;;;;;;;73.95;31.23;;;;;;;1.12;94.76;101139.86;5032960;56;1138817;-71
2022/03/04 00:35:33;;;;;;;63.90;31.55;;;;;;;1.09;94.83;101139.09;5039252;56;1138954;-71
2022/03/04 00:40:38;;;;;;;66.10;29.05;;;;;;;1.07;95.22;101134.39;5116930;56;1138853;-75
2022/03/04 00:45:44;;;;;;;56.97;24.97;;;;;;;1.04;95.37;101134.03;5112558;56;1139032;-73
2022/03/04 00:50:49;;;;;;;48.53;20.27;;;;;;;1.06;95.62;101137.45;5106277;55;1138992;-72
2022/03/04 00:55:55;;;;;;;48.80;20.43;;;;;;;1.17;95.86;101139.73;5106652;56;1139131;-73
2022/03/04 01:01:01;;;;;;;40.03;17.93;;;;;;;1.17;95.90;101143.20;5116896;56;1139040;-75
2022/03/04 01:06:09;;;;;;;40.83;15.67;;;;;;;1.17;96.06;101140.59;5116499;56;1138886;-72
2022/03/04 01:11:16;;;;;;;38.27;16.37;;;;;;;1.26;96.17;101142.06;5086899;56;1138963;-70
2022/03/04 01:16:22;;;;;;;46.80;16.93;;;;;;;1.30;96.25;101147.59;5089469;56;1138934;-73
2022/03/04 01:21:28;;;;;;;42.07;15.60;;;;;;;1.31;96.40;101137.12;5072146;56;1147505;-70
2022/03/04 01:26:34;;;;;;;43.38;13.58;;;;;;;1.35;96.27;101144.41;5087513;56;1138965;-72
2022/03/04 01:31:40;;;;;;;39.20;13.77;;;;;;;1.39;96.22;101149.91;5084208;56;1138957;-71
2022/03/04 01:36:46;;;;;;;33.93;12.63;;;;;;;1.35;96.27;101146.57;5055766;56;1138954;-74
2022/03/04 01:41:53;;;;;;;26.83;10.27;;;;;;;1.33;96.24;101143.60;5003268;57;1138791;-74
2022/03/04 01:46:59;;;;;;;20.10;8.83;;;;;;;1.36;96.40;101142.22;5003807;57;1139049;-73
2022/03/04 01:52:05;;;;;;;20.73;9.53;;;;;;;1.39;96.23;101142.09;5003964;57;1136835;-73
2022/03/04 01:57:11;;;;;;;20.53;7.77;;;;;;;1.38;96.57;101141.24;5003925;57;1136777;-72
2022/03/04 02:02:17;;;;;;;23.93;7.80;;;;;;;1.34;96.47;101143.56;5004167;56;1136997;-73
2022/03/04 02:07:23;;;;;;;20.50;7.07;;;;;;;1.37;96.50;101142.63;5004034;57;1136767;-78
2022/03/04 02:12:29;;;;;;;21.85;7.28;;;;;;;1.44;96.49;101152.39;5003446;58;1136855;-74
2022/03/04 02:17:35;;;;;;;11.57;6.60;;;;;;;1.40;96.50;101143.36;5004106;56;1136747;-75
2022/03/04 02:22:41;;;;;;;19.10;6.40;;;;;;;1.33;96.44;101144.91;5003867;56;1136887;-73
2022/03/04 02:27:47;;;;;;;18.40;8.07;;;;;;;1.30;96.40;101144.98;5003508;57;1136877;-71
2022/03/04 02:32:52;;;;;;;23.30;10.67;;;;;;;1.33;96.41;101146.20;5003976;56;1136789;-73
2022/03/04 02:37:59;;;;;;;20.00;8.20;;;;;;;1.33;96.39;101149.67;5004838;57;1138776;-75
2022/03/04 02:43:05;;;;;;;16.50;6.03;;;;;;;1.37;96.69;101155.20;5003810;57;1136850;-71
2022/03/04 02:48:11;;;;;;;15.23;5.95;;;;;;;1.35;96.67;101158.75;5003424;58;1136640;-76
2022/03/04 02:53:16;;;;;;;16.30;5.93;;;;;;;1.29;96.46;101155.86;5003893;57;1136751;-71
2022/03/04 02:58:22;;;;;;;13.17;4.93;;;;;;;1.33;96.67;101158.79;5003658;57;1137074;-71
2022/03/04 03:03:28;;;;;;;16.93;6.40;;;;;;;1.42;96.80;101164.16;5003752;57;1136622;-72
2022/03/04 03:08:35;;;;;;;14.87;6.35;;;;;;;1.49;97.32;101162.24;5003988;57;1136653;-73
2022/03/04 03:13:40;;;;;;;14.13;5.70;;;;;;;1.52;97.18;101160.86;5018110;57;1138640;-75
2022/03/04 03:18:46;;;;;;;16.03;6.37;;;;;;;1.60;97.14;101151.03;5023143;57;1137111;-71
2022/03/04 03:23:52;;;;;;;18.80;6.50;;;;;;;1.63;97.00;101147.89;5022924;56;1136711;-72
2022/03/04 03:28:58;;;;;;;17.75;6.15;;;;;;;1.65;97.01;101153.06;5022670;57;1136871;-72
2022/03/04 03:34:04;;;;;;;10.80;5.37;;;;;;;1.65;96.66;101149.15;5022573;57;1136813;-73
2022/03/04 03:39:10;;;;;;;20.43;6.77;;;;;;;1.62;95.90;101154.00;5026679;56;1136606;-69
2022/03/04 03:44:16;;;;;;;12.10;5.67;;;;;;;1.54;95.79;101157.27;5002740;57;1136598;-74
2022/03/04 03:49:24;;;;;;;14.13;5.63;;;;;;;1.43;95.70;101157.20;5023119;57;1136741;-74
2022/03/04 03:54:29;;;;;;;16.47;5.17;;;;;;;1.43;96.16;101163.72;5023078;57;1136718;-72
2022/03/04 03:59:35;;;;;;;10.13;4.47;;;;;;;1.46;96.24;101161.02;5023101;57;1136712;-72
2022/03/04 04:04:41;;;;;;;14.15;4.60;;;;;;;1.45;96.42;101162.78;5023072;57;1136825;-70
2022/03/04 04:09:47;;;;;;;14.20;4.30;;;;;;;1.44;96.49;101161.07;5022890;57;1136654;-74
2022/03/04 04:14:53;;;;;;;12.43;5.00;;;;;;;1.45;96.23;101158.02;5018144;57;1152297;-70
2022/03/04 04:19:59;;;;;;;39.23;18.20;;;;;;;1.47;96.18;101165.34;5051724;56;1136694;-73
2022/03/04 04:25:08;;;;;;;28.70;12.87;;;;;;;1.39;95.52;101166.86;5052200;56;1139008;-69
2022/03/04 04:30:14;;;;;;;16.52;6.35;;;;;;;1.24;95.36;101169.45;5047235;56;1138895;-73
2022/03/04 04:35:20;;;;;;;18.17;5.53;;;;;;;1.15;95.61;101155.86;5042810;56;1137022;-73
2022/03/04 04:40:26;;;;;;;18.66;5.16;;;;;;;1.19;95.48;101154.88;5123435;56;1136865;-72
2022/03/04 04:45:32;;;;;;;21.87;5.50;;;;;;;1.13;95.47;101148.53;5078572;56;1136960;-71
2022/03/04 04:50:38;;;;;;;7.93;3.10;;;;;;;1.08;95.89;101151.26;5076933;56;1136943;-71
2022/03/04 04:55:44;;;;;;;25.25;6.10;;;;;;;1.01;95.77;101154.95;5128906;55;1134885;-70
2022/03/04 05:00:56;;;;;;;19.90;6.63;;;;;;;1.06;96.03;101149.17;5138155;55;1136820;-71
2022/03/04 05:06:02;;;;;;;21.60;6.73;;;;;;;1.09;96.04;101152.11;5138037;55;1137042;-71
2022/03/04 05:11:09;;;;;;;28.95;5.42;;;;;;;1.08;96.18;101146.05;5137536;55;1136743;-75
2022/03/04 05:16:14;;;;;;;24.60;6.67;;;;;;;1.11;96.04;101158.13;5137782;55;1136881;-70
2022/03/04 05:21:20;;;;;;;22.80;6.90;;;;;;;1.15;96.21;101161.06;5137991;55;1137061;-71
2022/03/04 05:26:33;;;;;;;22.52;5.97;;;;;;;1.14;96.14;101170.63;5128261;55;1136738;-73
2022/03/04 05:31:44;;;;;;;24.25;7.40;;;;;;;1.14;96.01;101168.03;5137616;55;1136798;-70
2022/03/04 05:36:49;;;;;;;15.13;5.27;;;;;;;1.16;95.84;101168.84;5131164;55;1137279;-72
2022/03/04 05:41:55;;;;;;;10.60;3.62;;;;;;;1.16;96.07;101176.66;5117904;55;1136989;-71
2022/03/04 05:47:01;;;;;;;18.70;4.03;;;;;;;1.12;95.96;101177.62;5130073;55;1136784;-71
2022/03/04 05:52:07;;;;;;;12.20;3.93;;;;;;;1.12;95.91;101176.78;5110092;56;1137299;-70
2022/03/04 05:57:13;;;;;;;26.03;8.97;;;;;;;1.13;96.41;101185.86;5063445;56;1136804;-75
2022/03/04 06:02:18;;;;;;;17.73;7.37;;;;;;;1.10;96.42;101195.50;5108786;56;1136835;-71
2022/03/04 06:07:24;;;;;;;25.83;9.83;;;;;;;1.10;96.52;101194.20;5080516;56;1137187;-67
2022/03/04 06:12:30;;;;;;;31.67;12.70;;;;;;;1.05;96.56;101193.90;5104977;55;1143008;-69
2022/03/04 06:17:36;;;;;;;29.55;10.28;;;;;;;1.13;97.38;101204.09;5069115;56;1138982;-71
2022/03/04 06:22:43;;;;;;;11.33;4.53;;;;;;;1.15;97.36;101199.70;5042006;57;1138910;-72
2022/03/04 06:27:58;;;;;;;18.10;6.97;;;;;;;1.20;97.39;101210.00;5041426;57;1136907;-74
2022/03/04 06:38:31;;;;;;;27.30;8.77;;;;;;;1.34;97.94;101230.86;5092004;56;1137077;-70
2022/03/04 06:43:38;;;;;;;18.02;6.47;;;;;;;1.35;98.03;101234.32;5115837;56;1136889;-72
2022/03/04 06:48:44;;;;;;;38.17;9.43;;;;;;;1.38;97.84;101244.19;5087866;56;1136948;-70
2022/03/04 06:53:50;;;;;;;20.47;6.23;;;;;;;1.45;98.29;101245.33;5032294;56;1136679;-74
2022/03/04 06:58:56;;;;;;;22.90;7.57;;;;;;;1.49;98.64;101245.20;5105747;56;1136652;-70
2022/03/04 07:04:01;;;;;;;23.47;8.40;;;;;;;1.53;98.79;101248.59;5114448;56;1136610;-71
2022/03/04 07:09:07;;;;;;;11.53;4.57;;;;;;;1.59;99.09;101249.25;5114481;56;1136590;-68
2022/03/04 07:14:13;;;;;;;24.27;7.73;;;;;;;1.69;99.51;101256.34;5118531;56;1136867;-70
2022/03/04 07:19:19;;;;;;;16.77;6.07;;;;;;;1.71;99.50;101257.16;5115007;55;1136753;-71
2022/03/04 07:24:24;;;;;;;15.07;4.70;;;;;;;1.79;99.82;101263.02;5122183;56;1136576;-71
2022/03/04 07:29:30;;;;;;;23.97;6.13;;;;;;;1.79;99.82;101263.02;5122086;56;1136674;-68
2022/03/04 07:34:36;;;;;;;19.75;6.35;;;;;;;1.85;99.78;101264.11;5121520;56;1136707;-69
2022/03/04 07:39:41;;;;;;;32.13;9.73;;;;;;;1.89;99.89;101273.56;5115506;56;1136905;-73
2022/03/04 07:44:47;;;;;;;21.23;7.92;;;;;;;1.90;99.72;101281.80;5124303;56;1136785;-72
2022/03/04 07:49:53;;;;;;;15.87;6.17;;;;;;;1.94;99.68;101276.05;5118822;56;1136892;-68
2022/03/04 07:55:02;;;;;;;16.77;6.40;;;;;;;1.99;99.74;101284.12;5052518;56;1136720;-71
2022/03/04 08:00:11;;;;;;;15.80;6.33;;;;;;;2.03;100.00;101285.74;5098216;56;1136525;-71
2022/03/04 08:05:16;;;;;;;16.47;5.37;;;;;;;2.03;100.00;101291.41;5111555;56;1138665;-75
2022/03/04 08:10:22;;;;;;;18.40;6.37;;;;;;;2.08;99.68;101300.82;5112204;56;1138646;-70
2022/03/04 08:15:27;;;;;;;26.00;5.93;;;;;;;2.15;99.88;101297.55;5112098;56;1136697;-71
2022/03/04 08:20:33;;;;;;;17.60;5.97;;;;;;;2.20;99.85;101301.34;5110795;56;1136899;-71
2022/03/04 08:25:40;;;;;;;19.82;6.78;;;;;;;2.21;99.79;101305.21;5103327;56;1136692;-69
2022/03/04 08:30:46;;;;;;;23.07;5.53;;;;;;;2.26;99.66;101308.99;5099602;56;1136775;-71
2022/03/04 08:35:53;;;;;;;22.37;5.27;;;;;;;2.35;99.75;101319.14;5017231;56;1136783;-71
2022/03/04 08:40:59;;;;;;;21.60;7.23;;;;;;;2.39;99.52;101325.98;5050127;56;1136673;-71
2022/03/04 08:46:05;;;;;;;25.93;6.60;;;;;;;2.41;99.66;101324.19;5117595;56;1136629;-72
2022/03/04 08:51:10;;;;;;;18.60;5.20;;;;;;;2.51;99.67;101328.66;5156299;55;1136846;-71
2022/03/04 08:56:16;;;;;;;17.70;5.10;;;;;;;2.63;99.58;101326.95;5189671;56;1136684;-69
2022/03/04 09:01:22;;;;;;;6.23;2.67;;;;;;;2.74;99.10;101332.71;5189659;55;1136574;-74
2022/03/04 09:06:28;;;;;;;9.13;2.57;;;;;;;2.80;98.87;101335.11;5184431;55;1134687;-69
2022/03/04 09:11:33;;;;;;;7.67;3.20;;;;;;;2.85;98.42;101348.88;5190100;55;1134634;-72
2022/03/04 09:16:40;;;;;;;8.97;3.67;;;;;;;2.81;98.29;101347.27;5189983;55;1134664;-71
2022/03/04 09:21:52;;;;;;;16.27;4.83;;;;;;;2.76;98.44;101357.85;5190468;55;1134739;-73
2022/03/04 09:26:54;;;;;;;7.67;3.37;;;;;;;2.76;98.46;101350.02;5139304;55;1136771;-72
2022/03/04 09:32:00;;;;;;;18.93;5.40;;;;;;;2.81;98.24;101361.18;5113387;56;1134584;-74
2022/03/04 09:37:06;;;;;;;8.83;2.25;;;;;;;2.83;98.13;101369.83;5157584;55;1136839;-69
2022/03/04 09:42:14;;;;;;;12.43;4.77;;;;;;;2.88;97.24;101367.08;5030883;56;1134759;-69
2022/03/04 09:47:23;;;;;;;16.83;5.33;;;;;;;2.95;97.12;101369.02;5034159;56;1136827;-69
2022/03/04 09:52:30;;;;;;;12.53;4.23;;;;;;;3.03;97.14;101360.05;5111902;56;1136745;-70
2022/03/04 09:57:36;;;;;;;10.00;4.03;;;;;;;3.09;96.85;101357.66;5113427;56;1136751;-70
2022/03/04 10:02:42;;;;;;;11.60;4.03;;;;;;;3.14;96.19;101363.14;5043092;56;1136766;-71
2022/03/04 10:07:50;;;;;;;17.12;4.95;;;;;;;3.20;95.74;101360.79;5051573;56;1136988;-71
2022/03/04 10:12:58;;;;;;;17.17;4.77;;;;;;;3.24;95.43;101370.21;5051587;56;1136730;-71
2022/03/04 10:18:06;;;;;;;12.17;4.67;;;;;;;3.23;94.74;101360.66;5051967;56;1136771;-69
2022/03/04 10:23:22;;;;;;;11.60;4.70;;;;;;;3.27;94.27;101359.66;5052422;56;1136756;-74
2022/03/04 10:28:30;;;;;;;10.80;3.77;;;;;;;3.30;94.01;101362.17;5051984;56;1136949;-68
2022/03/04 10:33:36;;;;;;;22.43;6.70;;;;;;;3.35;93.91;101364.19;5051687;56;1140343;-70
2022/03/04 10:38:43;;;;;;;8.35;3.40;;;;;;;3.39;93.85;101357.07;5095408;56;1136943;-71
2022/03/04 10:43:51;;;;;;;13.58;4.37;;;;;;;3.45;93.49;101352.95;5114384;56;1134746;-70
2022/03/04 10:48:58;;;;;;;30.20;9.90;;;;;;;3.47;93.06;101348.52;5115143;56;1136848;-71
2022/03/04 10:54:16;;;;;;;12.53;4.73;;;;;;;3.50;93.08;101347.11;5114230;56;1136747;-69
2022/03/04 10:59:22;;;;;;;15.97;4.33;;;;;;;3.54;92.50;101348.69;5114537;56;1136752;-70
2022/03/04 11:04:28;;;;;;;17.57;4.78;;;;;;;3.60;92.52;101345.87;4978347;57;1136964;-72
2022/03/04 11:09:34;;;;;;;15.50;5.77;;;;;;;3.67;92.70;101346.48;5114090;56;1136758;-73
2022/03/04 11:14:41;;;;;;;16.17;6.60;;;;;;;3.74;92.03;101350.16;5093842;56;1136619;-74
2022/03/04 11:19:49;;;;;;;19.37;7.65;;;;;;;3.72;91.68;101348.05;5044431;56;1136864;-72
2022/03/04 11:24:58;;;;;;;21.10;6.10;;;;;;;3.68;91.69;101362.59;5089478;56;1136609;-72
2022/03/04 11:30:06;;;;;;;7.92;3.80;;;;;;;3.66;91.43;101365.28;5004412;56;1136756;-73
2022/03/04 11:35:12;;;;;;;13.10;5.80;;;;;;;3.65;91.27;101367.50;5015325;56;1134530;-72
2022/03/04 11:40:33;;;;;;;8.90;4.07;;;;;;;3.66;91.79;101368.35;5006434;55;1136758;-72
2022/03/04 11:45:39;;;;;;;11.00;4.00;;;;;;;3.66;92.06;101372.28;5009286;56;1134780;-72
2022/03/04 11:50:49;;;;;;;23.40;8.00;;;;;;;3.67;91.93;101374.81;5044429;56;1136860;-70
2022/03/04 11:56:15;;;;;;;20.37;7.53;;;;;;;3.70;92.28;101373.40;5053187;56;1136771;-71
2022/03/04 12:01:33;;;;;;;28.93;10.07;;;;;;;3.75;92.35;101379.78;5005403;57;1136702;-74
2022/03/04 12:06:40;;;;;;;34.05;13.30;;;;;;;3.76;92.22;101372.34;5078833;56;1138742;-71
2022/03/04 12:12:06;;;;;;;22.67;9.33;;;;;;;3.77;91.80;101376.66;5086352;56;1138921;-72
2022/03/04 12:17:13;;;;;;;31.37;10.78;;;;;;;3.80;91.05;101373.95;5058826;56;1136768;-70
2022/03/04 12:22:19;;;;;;;32.67;11.07;;;;;;;3.78;90.84;101371.83;5032162;57;1138795;-73
2022/03/04 12:27:43;;;;;;;44.17;13.43;;;;;;;3.82;91.33;101364.25;5083515;56;1139015;-73
2022/03/04 12:32:53;;;;;;;33.35;10.05;;;;;;;3.89;91.65;101368.37;5051278;56;1240336;-73
2022/03/04 12:38:00;;;;;;;26.10;6.47;;;;;;;4.00;91.24;101366.66;5027100;56;1139165;-73
2022/03/04 12:43:09;;;;;;;60.13;16.53;;;;;;;4.11;91.04;101373.22;5072828;56;1136799;-73
2022/03/04 12:48:13;;;;;;;31.20;8.67;;;;;;;4.17;90.64;101366.43;5087068;56;1138794;-73
2022/03/04 12:53:25;;;;;;;26.73;8.37;;;;;;;4.21;89.73;101369.80;5021809;55;1137032;-73
2022/03/04 12:58:49;;;;;;;46.77;12.90;;;;;;;4.24;89.49;101370.99;5021448;56;1137054;-73
2022/03/04 13:03:58;;;;;;;9.97;2.93;;;;;;;4.30;89.29;101372.05;5066894;56;1138972;-73
2022/03/04 13:09:08;;;;;;;10.93;3.90;;;;;;;4.37;88.94;101377.47;5074584;56;1134902;-73
2022/03/04 13:14:19;;;;;;;8.27;3.97;;;;;;;4.41;88.46;101379.06;5032740;56;1136957;-73
2022/03/04 13:19:29;;;;;;;12.95;3.05;;;;;;;4.50;87.97;101375.22;5055330;56;1134676;-73
2022/03/04 13:24:41;;;;;;;31.35;6.33;;;;;;;4.58;88.24;101374.00;5033088;56;1136793;-74
2022/03/04 13:29:59;;;;;;;10.98;3.90;;;;;;;4.70;87.73;101367.45;5056637;56;1136905;-74
2022/03/04 13:35:05;;;;;;;12.60;5.67;;;;;;;4.82;87.32;101371.34;5045562;56;1136969;-74
2022/03/04 13:40:20;;;;;;;12.30;4.63;;;;;;;4.90;86.31;101364.86;5044929;55;1136860;-74
2022/03/04 13:45:44;;;;;;;79.27;40.87;;;;;;;5.11;86.63;101361.82;5050385;56;1136830;-74
2022/03/04 13:50:46;;;;;;;88.42;33.55;;;;;;;5.26;85.36;101361.64;5068689;56;1138808;-73
2022/03/04 13:56:01;;;;;;;8.33;3.67;;;;;;;5.37;83.82;101359.41;5086969;56;1138765;-74
2022/03/04 14:01:11;;;;;;;18.50;6.03;;;;;;;5.40;83.84;101354.03;5073136;56;1134536;-73
2022/03/04 14:06:22;;;;;;;7.57;3.80;;;;;;;5.48;83.46;101355.89;5019742;56;1136896;-73
2022/03/04 14:11:27;;;;;;;11.00;3.70;;;;;;;5.56;82.52;101360.78;5050596;57;1134504;-72
2022/03/04 14:16:33;;;;;;;6.90;3.90;;;;;;;5.53;82.31;101355.20;5068294;56;1136621;-72
2022/03/04 14:21:38;;;;;;;16.03;5.77;;;;;;;5.59;82.74;101363.28;5084899;56;1134711;-73
2022/03/04 14:26:45;;;;;;;13.68;6.00;;;;;;;5.68;82.22;101364.64;5074571;56;1136687;-72
2022/03/04 14:31:50;;;;;;;12.33;5.80;;;;;;;5.63;81.15;101359.62;5007310;56;1137026;-73
2022/03/04 14:36:56;;;;;;;11.53;4.57;;;;;;;5.61;80.99;101365.39;5050651;56;1136804;-73
2022/03/04 14:42:02;;;;;;;15.03;5.77;;;;;;;5.58;80.63;101371.61;5031151;56;1136705;-73
2022/03/04 14:47:08;;;;;;;20.47;4.63;;;;;;;5.42;80.56;101371.02;5030080;57;1136848;-74
2022/03/04 14:52:14;;;;;;;13.80;4.53;;;;;;;5.29;80.53;101375.48;5039061;57;1136718;-73
2022/03/04 14:57:21;;;;;;;17.60;5.07;;;;;;;5.18;80.82;101381.64;5069087;56;1136979;-74
2022/03/04 15:02:27;;;;;;;15.50;6.35;;;;;;;5.13;81.11;101386.22;5110811;56;1136733;-72
2022/03/04 15:07:33;;;;;;;14.60;5.10;;;;;;;5.07;81.30;101379.90;5050089;56;1136667;-74
2022/03/04 15:12:40;;;;;;;60.90;20.17;;;;;;;5.08;81.37;101381.61;5050321;56;1136825;-74
2022/03/04 15:17:47;;;;;;;36.20;13.03;;;;;;;5.07;81.59;101369.41;5108967;55;1138962;-75
2022/03/04 15:22:53;;;;;;;59.03;20.97;;;;;;;5.11;81.73;101380.17;5136372;55;1138799;-75
2022/03/04 15:27:59;;;;;;;26.57;9.70;;;;;;;5.12;81.99;101375.33;5136240;55;1138733;-75
2022/03/04 15:33:05;;;;;;;174.77;43.67;;;;;;;5.10;81.96;101371.91;5136732;55;1136904;-73
2022/03/04 15:38:10;;;;;;;48.27;17.53;;;;;;;5.04;81.84;101371.33;5084669;56;1140860;-73
2022/03/04 15:43:17;;;;;;;27.40;10.70;;;;;;;4.95;81.78;101376.02;5051521;56;1139046;-74
2022/03/04 15:48:23;;;;;;;38.90;13.17;;;;;;;4.92;81.82;101372.66;5050966;56;1139085;-73
2022/03/04 15:53:30;;;;;;;21.30;7.90;;;;;;;4.88;81.73;101378.51;5062413;55;1140916;-74
2022/03/04 15:58:35;;;;;;;26.07;11.90;;;;;;;4.88;81.93;101385.06;5079381;55;1136847;-73
2022/03/04 18:27:43;;;;;;;87.20;33.87;;;;;;;4.00;84.51;101455.19;5330705;54;98110;-69
2022/03/04 18:32:49;;;;;;;42.90;19.37;;;;;;;4.02;84.73;101461.23;5165804;55;1134821;-71
2022/03/04 18:40:09;;;;;;;98.75;35.88;;;;;;;4.01;84.69;101464.75;5127642;55;1138803;-69
2022/03/04 18:43:03;;;;;;;45.90;18.57;;;;;;;3.98;84.69;101470.09;5053235;56;1138871;-71
2022/03/04 18:48:08;;;;;;;35.88;16.85;;;;;;;3.88;84.57;101483.96;5161557;55;1138747;-68
2022/03/04 18:53:14;;;;;;;24.03;9.47;;;;;;;3.82;84.91;101483.30;5069465;55;1138991;-70
2022/03/04 18:58:20;;;;;;;15.50;7.57;;;;;;;3.75;84.63;101481.37;5058318;56;1137068;-69
2022/03/04 19:03:27;;;;;;;17.57;8.23;;;;;;;3.68;84.40;101485.08;5060717;56;1136856;-68
2022/03/04 19:08:33;;;;;;;20.57;7.93;;;;;;;3.54;84.19;101486.86;5057746;55;1136616;-70
2022/03/04 19:13:39;;;;;;;15.70;6.17;;;;;;;3.40;84.05;101482.53;5072352;55;1136741;-70
2022/03/04 19:18:45;;;;;;;18.80;7.13;;;;;;;3.33;83.65;101492.80;5071807;55;1136755;-68
2022/03/04 19:23:51;;;;;;;13.48;5.65;;;;;;;3.25;83.54;101484.78;5072159;55;1136905;-69
2022/03/04 19:28:57;;;;;;;13.88;6.15;;;;;;;3.14;83.34;101488.61;5114734;55;1136724;-69
2022/03/04 19:34:04;;;;;;;20.63;7.33;;;;;;;3.05;83.25;101491.97;5122196;55;1136750;-68
2022/03/04 19:39:10;;;;;;;18.97;6.53;;;;;;;2.97;83.28;101482.19;5119737;56;1137088;-70
2022/03/04 19:44:15;;;;;;;14.60;6.87;;;;;;;2.94;83.15;101487.50;5117232;54;1136748;-71
2022/03/04 19:49:26;;;;;;;23.93;10.57;;;;;;;2.93;83.14;101489.70;5117192;55;1136917;-70
2022/03/04 19:54:30;;;;;;;22.43;10.07;;;;;;;2.87;83.06;101484.69;5117001;55;1138769;-68
2022/03/04 19:59:36;;;;;;;29.92;10.25;;;;;;;2.80;83.19;101482.25;5113976;55;1138871;-67
2022/03/04 20:04:41;;;;;;;28.87;11.47;;;;;;;2.72;82.91;101491.23;5157347;55;1138850;-70
2022/03/04 20:09:47;;;;;;;24.72;9.05;;;;;;;2.62;82.94;101490.63;5123332;55;1138843;-72
2022/03/04 20:14:53;;;;;;;29.75;11.55;;;;;;;2.56;83.16;101493.43;5036175;56;1136915;-69
2022/03/04 20:19:59;;;;;;;32.30;14.20;;;;;;;2.51;83.25;101490.09;5109016;55;1138918;-71
2022/03/04 20:25:06;;;;;;;41.50;17.43;;;;;;;2.43;83.03;101489.47;5146702;55;1138790;-70
2022/03/04 20:30:13;;;;;;;36.80;13.53;;;;;;;2.39;82.98;101504.35;5120327;55;1138811;-71
2022/03/04 20:35:20;;;;;;;25.80;9.28;;;;;;;2.32;82.82;101495.41;5100579;56;1138792;-72
2022/03/04 20:40:25;;;;;;;26.87;10.00;;;;;;;2.23;82.64;101507.43;5104632;55;1136892;-72
2022/03/04 20:45:31;;;;;;;31.63;11.77;;;;;;;2.14;82.60;101508.52;5110865;55;1138832;-72
2022/03/04 20:50:37;;;;;;;26.30;10.47;;;;;;;2.10;82.62;101509.52;5035371;57;1139011;-72
2022/03/04 20:55:42;;;;;;;31.40;12.27;;;;;;;2.03;82.64;101511.87;5036255;57;1138817;-70
2022/03/04 21:00:48;;;;;;;31.73;12.30;;;;;;;2.02;82.81;101517.98;5037372;57;1147934;-72
2022/03/04 21:05:54;;;;;;;35.63;12.50;;;;;;;1.91;82.32;101528.70;5019366;57;1138799;-72
2022/03/04 21:11:01;;;;;;;19.87;8.50;;;;;;;1.83;82.44;101536.33;5098267;56;1138809;-70
2022/03/04 21:16:07;;;;;;;23.17;7.83;;;;;;;1.76;82.60;101527.34;5093477;56;1136912;-71
2022/03/04 21:21:15;;;;;;;18.63;9.63;;;;;;;1.68;82.41;101532.36;5103498;55;1136688;-69
2022/03/04 21:26:20;;;;;;;30.07;13.23;;;;;;;1.60;82.65;101531.23;5130832;55;1136830;-71
2022/03/04 21:31:26;;;;;;;30.60;12.03;;;;;;;1.52;82.73;101534.48;5130338;55;1139084;-71
2022/03/04 21:36:32;;;;;;;25.13;11.83;;;;;;;1.47;82.79;101543.30;5113876;55;1138908;-71
2022/03/04 21:41:39;;;;;;;27.80;11.60;;;;;;;1.41;82.84;101538.63;5130585;55;1138925;-72
2022/03/04 21:46:45;;;;;;;33.33;11.38;;;;;;;1.33;82.88;101547.53;5135980;55;1138855;-72
2022/03/04 21:51:51;;;;;;;22.93;9.28;;;;;;;1.28;82.99;101547.62;5095531;54;1138722;-72
2022/03/04 21:56:58;;;;;;;30.67;10.43;;;;;;;1.25;82.80;101550.30;5122699;54;1136574;-71
2022/03/04 22:02:04;;;;;;;39.83;13.37;;;;;;;1.21;83.11;101553.88;5085360;54;1138894;-72
2022/03/04 22:07:10;;;;;;;31.80;11.53;;;;;;;1.21;83.10;101559.54;5077657;54;1138747;-69
2022/03/04 22:12:17;;;;;;;23.90;10.17;;;;;;;1.20;83.07;101563.03;5122357;54;1138773;-70
2022/03/04 22:17:22;;;;;;;30.53;10.87;;;;;;;1.16;82.97;101555.73;5121501;54;1138829;-71
2022/03/04 22:22:28;;;;;;;21.53;8.97;;;;;;;1.14;83.06;101553.59;5122028;54;1138686;-72
2022/03/04 22:27:35;;;;;;;22.77;9.33;;;;;;;1.12;83.11;101555.81;5122425;54;1136838;-70
2022/03/04 22:32:41;;;;;;;27.40;10.77;;;;;;;1.19;83.71;101559.57;5122553;54;1136575;-71
2022/03/04 22:37:46;;;;;;;31.60;12.40;;;;;;;1.28;83.84;101560.66;5122818;54;1138710;-70
2022/03/04 22:42:52;;;;;;;52.35;19.42;;;;;;;1.34;83.69;101563.58;5122297;54;1138664;-71
2022/03/04 22:47:58;;;;;;;436.87;124.00;;;;;;;1.36;83.63;101564.41;5122161;54;1138854;-72
2022/03/04 22:53:03;;;;;;;332.40;91.07;;;;;;;1.37;83.46;101568.28;5122222;54;1143100;-72
2022/03/04 22:58:10;;;;;;;80.63;30.13;;;;;;;1.14;81.87;101567.06;5122128;54;1140984;-70
2022/03/04 23:08:41;;;;;;;88.40;34.73;;;;;;;0.50;82.21;101578.36;5120811;54;1140711;-69
2022/03/04 23:13:47;;;;;;;82.33;29.47;;;;;;;0.53;83.56;101576.14;5121413;54;1139071;-71
2022/03/04 23:18:54;;;;;;;100.95;33.48;;;;;;;0.64;84.04;101572.87;5123190;54;1138837;-71
2022/03/04 23:24:00;;;;;;;98.45;32.13;;;;;;;0.71;84.02;101575.79;5123191;54;1140915;-71
2022/03/04 23:29:08;;;;;;;90.73;29.00;;;;;;;0.76;84.10;101575.27;5123174;54;1139073;-71
2022/03/04 23:34:14;;;;;;;96.23;32.00;;;;;;;0.75;83.69;101578.75;5116153;54;1183098;-72
2022/03/04 23:39:20;;;;;;;71.50;25.40;;;;;;;0.73;83.50;101578.37;5040371;54;1138863;-71
2022/03/04 23:44:27;;;;;;;58.07;20.73;;;;;;;0.61;83.37;101565.98;5037587;54;1139075;-71
2022/03/04 23:49:34;;;;;;;55.87;19.87;;;;;;;0.62;83.62;101568.14;5047077;54;1139109;-71
2022/03/04 23:54:40;;;;;;;47.70;16.17;;;;;;;0.62;83.75;101569.00;5047367;54;1138823;-71
2022/03/04 23:59:46;;;;;;;33.57;12.87;;;;;;;0.56;83.28;101569.14;5047317;55;1138695;-71
